Time,TemperatureF,DewpointF,PressureIn,WindDirection,WindDirectionDegrees,WindSpeedMPH,WindSpeedGustMPH,Humidity,HourlyPrecipIn,Conditions,Clouds,dailyrainin,SolarRadiationWatts/m^2,SoftwareType,DateUTC
2013-02-17 00:00:00,34.4,24.2,30.28,NNE,28,0.0,0.0,66,0.00,,,0.00,0,Wunderground v.1.15,2013-02-17 06:00:00,
2013-02-17 00:05:00,34.4,24.2,30.28,NNE,28,0.0,0.0,66,0.00,,,0.00,0,Wunderground v.1.15,2013-02-17 06:05:00,
2013-02-17 00:10:00,34.2,24.0,30.28,NNE,28,0.0,0.0,66,0.00,,,0.00,0,Wunderground v.1.15,2013-02-17 06:10:00,
2013-02-17 00:16:00,34.1,24.3,30.28,ENE,75,0.0,0.0,67,0.00,,,0.00,0,Wunderground v.1.15,2013-02-17 06:16:00,
2013-02-17 00:21:00,34.1,24.6,30.28,ENE,74,0.0,0.0,68,0.00,,,0.00,0,Wunderground v.1.15,2013-02-17 06:21:00,
2013-02-17 00:26:00,34.1,25.0,30.28,ENE,73,0.0,0.0,69,0.00,,,0.00,0,Wunderground v.1.15,2013-02-17 06:26:00,
2013-02-17 00:32:00,34.0,24.5,30.28,ENE,67,0.0,0.0,68,0.00,,,0.00,0,Wunderground v.1.15,2013-02-17 06:32:00,
2013-02-17 00:37:00,34.0,24.5,30.28,ENE,67,0.0,0.0,68,0.00,,,0.00,0,Wunderground v.1.15,2013-02-17 06:37:00,
2013-02-17 00:42:00,33.8,24.7,30.28,ENE,67,0.0,0.0,69,0.00,,,0.00,0,Wunderground v.1.15,2013-02-17 06:42:00,
2013-02-17 00:47:00,33.8,24.7,30.28,ENE,67,0.0,2.0,69,0.00,,,0.00,0,Wunderground v.1.15,2013-02-17 06:47:00,
2013-02-17 00:53:00,33.7,25.0,30.28,ENE,70,0.0,0.0,70,0.00,,,0.00,0,Wunderground v.1.15,2013-02-17 06:53:00,
2013-02-17 00:59:00,33.6,25.2,30.28,ENE,70,0.0,0.0,71,0.00,,,0.00,0,Wunderground v.1.15,2013-02-17 06:59:00,
2013-02-17 01:04:00,33.5,25.1,30.28,ENE,70,0.0,0.0,71,0.00,,,0.00,0,Wunderground v.1.15,2013-02-17 07:04:00,
2013-02-17 01:10:00,33.4,25.3,30.28,ENE,70,0.0,0.0,72,0.00,,,0.00,0,Wunderground v.1.15,2013-02-17 07:10:00,
2013-02-17 01:15:00,33.4,25.0,30.28,ENE,70,0.0,0.0,71,0.00,,,0.00,0,Wunderground v.1.15,2013-02-17 07:15:00,
2013-02-17 01:20:00,33.3,24.9,30.28,ENE,66,0.0,0.0,71,0.00,,,0.00,0,Wunderground v.1.15,2013-02-17 07:20:00,
2013-02-17 01:25:00,33.2,24.8,30.28,ENE,66,0.0,0.0,71,0.00,,,0.00,0,Wunderground v.1.15,2013-02-17 07:25:00,
2013-02-17 01:31:00,33.1,25.4,30.29,ENE,66,0.0,0.0,73,0.00,,,0.00,0,Wunderground v.1.15,2013-02-17 07:31:00,
2013-02-17 01:37:00,33.0,25.0,30.29,ENE,66,0.0,0.0,72,0.00,,,0.00,0,Wunderground v.1.15,2013-02-17 07:37:00,
2013-02-17 01:42:00,32.9,26.2,30.28,ENE,66,0.0,0.0,76,0.00,,,0.00,0,Wunderground v.1.15,2013-02-17 07:42:00,
2013-02-17 01:48:00,32.6,25.6,30.28,ENE,66,0.0,0.0,75,0.00,,,0.00,0,Wunderground v.1.15,2013-02-17 07:48:00,
2013-02-17 01:53:00,32.4,25.0,30.28,ENE,66,0.0,0.0,74,0.00,,,0.00,0,Wunderground v.1.15,2013-02-17 07:53:00,
2013-02-17 01:59:00,32.2,24.8,30.28,ENE,66,0.0,0.0,74,0.00,,,0.00,0,Wunderground v.1.15,2013-02-17 07:59:00,
2013-02-17 02:04:00,32.0,25.0,30.28,ENE,66,0.0,1.0,75,0.00,,,0.00,0,Wunderground v.1.15,2013-02-17 08:04:00,
2013-02-17 02:10:00,31.8,25.1,30.28,ENE,66,0.0,1.0,76,0.00,,,0.00,0,Wunderground v.1.15,2013-02-17 08:10:00,
2013-02-17 02:15:00,31.6,25.2,30.28,ENE,66,0.0,1.0,77,0.00,,,0.00,0,Wunderground v.1.15,2013-02-17 08:15:00,
2013-02-17 02:20:00,31.4,25.3,30.28,ENE,66,0.0,1.0,78,0.00,,,0.00,0,Wunderground v.1.15,2013-02-17 08:20:00,
2013-02-17 02:25:00,31.1,24.7,30.28,ENE,66,0.0,1.0,77,0.00,,,0.00,0,Wunderground v.1.15,2013-02-17 08:25:00,
2013-02-17 02:31:00,30.8,24.7,30.28,ENE,66,0.0,1.0,78,0.00,,,0.00,0,Wunderground v.1.15,2013-02-17 08:31:00,
2013-02-17 02:36:00,30.6,24.9,30.28,ENE,66,0.0,1.0,79,0.00,,,0.00,0,Wunderground v.1.15,2013-02-17 08:36:00,
2013-02-17 02:41:00,30.5,24.8,30.28,ENE,66,0.0,1.0,79,0.00,,,0.00,0,Wunderground v.1.15,2013-02-17 08:41:00,
2013-02-17 02:46:00,30.3,24.6,30.28,ENE,66,0.0,1.0,79,0.00,,,0.00,0,Wunderground v.1.15,2013-02-17 08:46:00,
2013-02-17 02:51:00,30.2,24.5,30.28,ENE,66,0.0,1.0,79,0.00,,,0.00,0,Wunderground v.1.15,2013-02-17 08:51:00,
2013-02-17 02:56:00,30.1,24.4,30.28,ENE,66,0.0,1.0,79,0.00,,,0.00,0,Wunderground v.1.15,2013-02-17 08:56:00,
2013-02-17 03:02:00,30.0,24.6,30.28,ENE,66,0.0,1.0,80,0.00,,,0.00,0,Wunderground v.1.15,2013-02-17 09:02:00,
2013-02-17 03:07:00,29.9,24.5,30.28,ENE,66,0.0,1.0,80,0.00,,,0.00,0,Wunderground v.1.15,2013-02-17 09:07:00,
2013-02-17 03:13:00,29.9,25.1,30.28,ENE,66,0.0,1.0,82,0.00,,,0.00,0,Wunderground v.1.15,2013-02-17 09:13:00,
2013-02-17 03:18:00,29.8,25.0,30.28,ENE,66,0.0,1.0,82,0.00,,,0.00,0,Wunderground v.1.15,2013-02-17 09:18:00,
2013-02-17 03:23:00,29.8,25.3,30.28,ENE,66,0.0,1.0,83,0.00,,,0.00,0,Wunderground v.1.15,2013-02-17 09:23:00,
2013-02-17 03:29:00,29.8,25.0,30.28,ENE,66,0.0,1.0,82,0.00,,,0.00,0,Wunderground v.1.15,2013-02-17 09:29:00,
2013-02-17 03:34:00,29.8,25.3,30.28,ENE,66,0.0,1.0,83,0.00,,,0.00,0,Wunderground v.1.15,2013-02-17 09:34:00,
2013-02-17 03:39:00,29.8,25.6,30.28,ENE,66,0.0,1.0,84,0.00,,,0.00,0,Wunderground v.1.15,2013-02-17 09:39:00,
2013-02-17 03:44:00,29.8,25.8,30.28,ENE,66,0.0,1.0,85,0.00,,,0.00,0,Wunderground v.1.15,2013-02-17 09:44:00,
2013-02-17 03:49:00,29.8,25.6,30.27,ENE,66,0.0,1.0,84,0.00,,,0.00,0,Wunderground v.1.15,2013-02-17 09:49:00,
2013-02-17 03:55:00,29.9,25.1,30.27,ENE,66,0.0,1.0,82,0.00,,,0.00,0,Wunderground v.1.15,2013-02-17 09:55:00,
2013-02-17 04:00:00,30.1,25.0,30.27,ENE,66,0.0,1.0,81,0.00,,,0.00,0,Wunderground v.1.15,2013-02-17 10:00:00,
2013-02-17 04:06:00,30.2,25.1,30.27,ENE,67,0.0,1.0,81,0.00,,,0.00,0,Wunderground v.1.15,2013-02-17 10:06:00,
2013-02-17 04:11:00,30.2,25.1,30.27,ENE,67,0.0,1.0,81,0.00,,,0.00,0,Wunderground v.1.15,2013-02-17 10:11:00,
2013-02-17 04:16:00,30.3,25.2,30.27,ENE,66,0.0,1.0,81,0.00,,,0.00,0,Wunderground v.1.15,2013-02-17 10:16:00,
2013-02-17 04:21:00,30.2,24.8,30.27,ENE,67,0.0,1.0,80,0.00,,,0.00,0,Wunderground v.1.15,2013-02-17 10:21:00,
2013-02-17 04:26:00,30.2,24.5,30.27,ENE,66,0.0,1.0,79,0.00,,,0.00,0,Wunderground v.1.15,2013-02-17 10:26:00,
2013-02-17 04:32:00,30.3,24.6,30.28,ENE,67,0.0,1.0,79,0.00,,,0.00,0,Wunderground v.1.15,2013-02-17 10:32:00,
2013-02-17 04:37:00,30.4,24.7,30.28,ENE,67,0.0,1.0,79,0.00,,,0.00,0,Wunderground v.1.15,2013-02-17 10:37:00,
2013-02-17 04:42:00,30.4,24.7,30.28,ENE,67,0.0,1.0,79,0.00,,,0.00,0,Wunderground v.1.15,2013-02-17 10:42:00,
2013-02-17 04:48:00,30.4,24.1,30.28,ENE,67,0.0,1.0,77,0.00,,,0.00,0,Wunderground v.1.15,2013-02-17 10:48:00,
2013-02-17 04:53:00,30.5,24.1,30.28,ENE,67,0.0,1.0,77,0.00,,,0.00,0,Wunderground v.1.15,2013-02-17 10:53:00,
2013-02-17 04:58:00,30.6,23.9,30.28,ENE,68,0.0,1.0,76,0.00,,,0.00,0,Wunderground v.1.15,2013-02-17 10:58:00,
2013-02-17 05:03:00,30.7,24.0,30.28,ENE,68,0.0,1.0,76,0.00,,,0.00,0,Wunderground v.1.15,2013-02-17 11:03:00,
2013-02-17 05:09:00,30.6,24.6,30.29,ENE,68,0.0,1.0,78,0.00,,,0.00,0,Wunderground v.1.15,2013-02-17 11:09:00,
2013-02-17 05:14:00,30.5,24.5,30.28,ENE,68,0.0,1.0,78,0.00,,,0.00,0,Wunderground v.1.15,2013-02-17 11:14:00,
2013-02-17 05:19:00,30.4,24.4,30.29,ENE,68,0.0,1.0,78,0.00,,,0.00,0,Wunderground v.1.15,2013-02-17 11:19:00,
2013-02-17 05:24:00,30.5,24.5,30.28,ENE,68,0.0,1.0,78,0.00,,,0.00,0,Wunderground v.1.15,2013-02-17 11:24:00,
2013-02-17 05:30:00,30.5,24.1,30.28,ENE,68,0.0,1.0,77,0.00,,,0.00,0,Wunderground v.1.15,2013-02-17 11:30:00,
2013-02-17 05:35:00,30.5,25.4,30.28,ENE,68,0.0,1.0,81,0.00,,,0.00,0,Wunderground v.1.15,2013-02-17 11:35:00,
2013-02-17 05:40:00,30.4,24.7,30.28,ENE,68,0.0,1.0,79,0.00,,,0.00,0,Wunderground v.1.15,2013-02-17 11:40:00,
2013-02-17 05:45:00,30.4,24.7,30.28,ENE,68,0.0,1.0,79,0.00,,,0.00,0,Wunderground v.1.15,2013-02-17 11:45:00,
2013-02-17 05:50:00,30.4,24.4,30.29,ENE,68,0.0,1.0,78,0.00,,,0.00,0,Wunderground v.1.15,2013-02-17 11:50:00,
2013-02-17 05:56:00,30.4,24.4,30.28,ENE,68,0.0,1.0,78,0.00,,,0.00,0,Wunderground v.1.15,2013-02-17 11:56:00,
2013-02-17 06:01:00,30.3,24.3,30.29,ENE,68,0.0,1.0,78,0.00,,,0.00,0,Wunderground v.1.15,2013-02-17 12:01:00,
2013-02-17 06:06:00,30.3,24.3,30.28,ENE,68,0.0,1.0,78,0.00,,,0.00,0,Wunderground v.1.15,2013-02-17 12:06:00,
2013-02-17 06:11:00,30.2,24.2,30.29,ENE,68,0.0,1.0,78,0.00,,,0.00,0,Wunderground v.1.15,2013-02-17 12:11:00,
2013-02-17 06:17:00,30.1,24.1,30.29,ENE,68,0.0,1.0,78,0.00,,,0.00,0,Wunderground v.1.15,2013-02-17 12:17:00,
2013-02-17 06:22:00,30.1,24.4,30.29,ENE,68,0.0,1.0,79,0.00,,,0.00,0,Wunderground v.1.15,2013-02-17 12:22:00,
2013-02-17 06:27:00,30.0,24.3,30.29,ENE,68,0.0,1.0,79,0.00,,,0.00,0,Wunderground v.1.15,2013-02-17 12:27:00,
2013-02-17 06:32:00,30.0,24.6,30.30,ENE,68,0.0,1.0,80,0.00,,,0.00,0,Wunderground v.1.15,2013-02-17 12:32:00,
2013-02-17 06:38:00,30.1,24.7,30.30,ENE,68,0.0,1.0,80,0.00,,,0.00,0,Wunderground v.1.15,2013-02-17 12:38:00,
2013-02-17 06:43:00,30.1,24.4,30.30,ENE,68,0.0,1.0,79,0.00,,,0.00,5,Wunderground v.1.15,2013-02-17 12:43:00,
2013-02-17 06:48:00,30.0,24.9,30.30,ENE,68,0.0,1.0,81,0.00,,,0.00,7,Wunderground v.1.15,2013-02-17 12:48:00,
2013-02-17 06:54:00,30.0,24.9,30.30,ENE,68,0.0,1.0,81,0.00,,,0.00,11,Wunderground v.1.15,2013-02-17 12:54:00,
2013-02-17 06:59:00,30.0,24.3,30.30,ENE,68,0.0,1.0,79,0.00,,,0.00,14,Wunderground v.1.15,2013-02-17 12:59:00,
2013-02-17 07:04:00,30.2,24.8,30.30,ENE,68,0.0,1.0,80,0.00,,,0.00,16,Wunderground v.1.15,2013-02-17 13:04:00,
2013-02-17 07:09:00,30.3,25.2,30.31,ENE,71,0.0,2.0,81,0.00,,,0.00,18,Wunderground v.1.15,2013-02-17 13:09:00,
2013-02-17 07:16:00,30.5,25.1,30.31,ENE,71,0.0,1.0,80,0.00,,,0.00,23,Wunderground v.1.15,2013-02-17 13:16:00,
2013-02-17 07:21:00,30.7,25.0,30.31,ENE,71,0.0,1.0,79,0.00,,,0.00,25,Wunderground v.1.15,2013-02-17 13:21:00,
2013-02-17 07:26:00,31.0,24.9,30.31,ENE,75,0.0,1.0,78,0.00,,,0.00,25,Wunderground v.1.15,2013-02-17 13:26:00,
2013-02-17 07:32:00,31.5,24.8,30.31,ENE,77,0.0,1.0,76,0.00,,,0.00,26,Wunderground v.1.15,2013-02-17 13:32:00,
2013-02-17 07:37:00,31.9,25.2,30.31,SE,135,0.0,1.0,76,0.00,,,0.00,33,Wunderground v.1.15,2013-02-17 13:37:00,
2013-02-17 07:43:00,32.3,24.6,30.31,SE,136,0.0,1.0,73,0.00,,,0.00,46,Wunderground v.1.15,2013-02-17 13:43:00,
2013-02-17 07:49:00,32.8,24.8,30.32,SE,136,0.0,3.0,72,0.00,,,0.00,32,Wunderground v.1.15,2013-02-17 13:49:00,
2013-02-17 07:54:00,33.1,24.7,30.32,SE,136,0.0,1.0,71,0.00,,,0.00,49,Wunderground v.1.15,2013-02-17 13:54:00,
2013-02-17 07:59:00,33.5,24.8,30.32,SE,134,0.0,3.0,70,0.00,,,0.00,181,Wunderground v.1.15,2013-02-17 13:59:00,
2013-02-17 08:05:00,34.4,24.9,30.33,SE,124,1.0,1.0,68,0.00,,,0.00,206,Wunderground v.1.15,2013-02-17 14:05:00,
2013-02-17 08:10:00,34.9,25.0,30.33,SE,135,1.0,1.0,67,0.00,,,0.00,223,Wunderground v.1.15,2013-02-17 14:10:00,
2013-02-17 08:16:00,35.5,24.9,30.33,SE,141,1.0,6.0,65,0.00,,,0.00,244,Wunderground v.1.15,2013-02-17 14:16:00,
2013-02-17 08:21:00,36.0,25.0,30.33,SE,128,1.0,1.0,64,0.00,,,0.00,258,Wunderground v.1.15,2013-02-17 14:21:00,
2013-02-17 08:26:00,36.6,25.6,30.34,SE,127,0.0,4.0,64,0.00,,,0.00,272,Wunderground v.1.15,2013-02-17 14:26:00,
2013-02-17 08:32:00,37.1,24.1,30.34,SE,138,1.0,7.0,59,0.00,,,0.00,290,Wunderground v.1.15,2013-02-17 14:32:00,
2013-02-17 08:38:00,37.5,23.6,30.34,ESE,120,2.0,7.0,57,0.00,,,0.00,311,Wunderground v.1.15,2013-02-17 14:38:00,
2013-02-17 08:43:00,37.9,24.4,30.34,ESE,119,1.0,5.0,58,0.00,,,0.00,327,Wunderground v.1.15,2013-02-17 14:43:00,
2013-02-17 08:48:00,38.5,24.6,30.34,SE,143,1.0,5.0,57,0.00,,,0.00,345,Wunderground v.1.15,2013-02-17 14:48:00,
2013-02-17 08:53:00,38.9,24.9,30.34,SE,125,1.0,1.0,57,0.00,,,0.00,360,Wunderground v.1.15,2013-02-17 14:53:00,
2013-02-17 08:58:00,39.4,25.0,30.34,SE,128,0.0,1.0,56,0.00,,,0.00,376,Wunderground v.1.15,2013-02-17 14:58:00,
2013-02-17 09:03:00,39.8,25.4,30.33,SE,131,0.0,1.0,56,0.00,,,0.00,390,Wunderground v.1.15,2013-02-17 15:03:00,
2013-02-17 09:09:00,40.2,25.3,30.34,SE,131,1.0,1.0,55,0.00,,,0.00,410,Wunderground v.1.15,2013-02-17 15:09:00,
2013-02-17 09:14:00,40.6,25.7,30.34,ESE,123,0.0,1.0,55,0.00,,,0.00,424,Wunderground v.1.15,2013-02-17 15:14:00,
2013-02-17 09:19:00,41.3,26.3,30.34,SE,127,0.0,1.0,55,0.00,,,0.00,439,Wunderground v.1.15,2013-02-17 15:19:00,
2013-02-17 09:24:00,41.9,26.9,30.34,SE,137,0.0,1.0,55,0.00,,,0.00,455,Wunderground v.1.15,2013-02-17 15:24:00,
2013-02-17 09:30:00,42.5,25.6,30.34,South,191,0.0,4.0,51,0.00,,,0.00,471,Wunderground v.1.15,2013-02-17 15:30:00,
2013-02-17 09:35:00,42.6,25.2,30.33,SSW,194,1.0,8.0,50,0.00,,,0.00,485,Wunderground v.1.15,2013-02-17 15:35:00,
2013-02-17 09:40:00,42.9,26.5,30.34,South,191,2.0,2.0,52,0.00,,,0.00,499,Wunderground v.1.15,2013-02-17 15:40:00,
2013-02-17 09:46:00,43.6,26.2,30.34,SSE,155,0.0,2.0,50,0.00,,,0.00,513,Wunderground v.1.15,2013-02-17 15:46:00,
2013-02-17 09:51:00,44.1,26.1,30.34,SSE,152,0.0,1.0,49,0.00,,,0.00,524,Wunderground v.1.15,2013-02-17 15:51:00,
2013-02-17 09:56:00,44.5,26.0,30.34,SSW,201,1.0,6.0,48,0.00,,,0.00,536,Wunderground v.1.15,2013-02-17 15:56:00,
2013-02-17 10:02:00,44.6,26.1,30.34,SW,223,2.0,4.0,48,0.00,,,0.00,548,Wunderground v.1.15,2013-02-17 16:02:00,
2013-02-17 10:07:00,44.8,25.3,30.34,SSW,197,2.0,4.0,46,0.00,,,0.00,563,Wunderground v.1.15,2013-02-17 16:07:00,
2013-02-17 10:12:00,45.2,26.7,30.34,SSW,192,2.0,2.0,48,0.00,,,0.00,573,Wunderground v.1.15,2013-02-17 16:12:00,
2013-02-17 10:17:00,45.7,26.6,30.34,South,184,1.0,7.0,47,0.00,,,0.00,584,Wunderground v.1.15,2013-02-17 16:17:00,
2013-02-17 10:22:00,46.1,27.5,30.34,SSW,208,1.0,1.0,48,0.00,,,0.00,594,Wunderground v.1.15,2013-02-17 16:22:00,
2013-02-17 10:27:00,46.4,27.2,30.33,SSW,192,0.0,2.0,47,0.00,,,0.00,606,Wunderground v.1.15,2013-02-17 16:27:00,
2013-02-17 10:33:00,47.0,26.2,30.33,SSW,196,0.0,2.0,44,0.00,,,0.00,613,Wunderground v.1.15,2013-02-17 16:33:00,
2013-02-17 10:38:00,47.4,26.0,30.33,WSW,237,0.0,6.0,43,0.00,,,0.00,624,Wunderground v.1.15,2013-02-17 16:38:00,
2013-02-17 10:44:00,47.9,27.6,30.33,South,177,1.0,5.0,45,0.00,,,0.00,633,Wunderground v.1.15,2013-02-17 16:44:00,
2013-02-17 10:50:00,48.4,28.5,30.33,SSW,192,0.0,1.0,46,0.00,,,0.00,645,Wunderground v.1.15,2013-02-17 16:50:00,
2013-02-17 10:55:00,49.1,27.0,30.32,SW,227,0.0,4.0,42,0.00,,,0.00,654,Wunderground v.1.15,2013-02-17 16:55:00,
2013-02-17 11:00:00,49.3,26.6,30.32,SW,231,0.0,1.0,41,0.00,,,0.00,663,Wunderground v.1.15,2013-02-17 17:00:00,
2013-02-17 11:05:00,49.5,27.9,30.32,SW,227,1.0,1.0,43,0.00,,,0.00,670,Wunderground v.1.15,2013-02-17 17:05:00,
2013-02-17 11:10:00,49.8,27.0,30.32,WSW,250,1.0,1.0,41,0.00,,,0.00,677,Wunderground v.1.15,2013-02-17 17:10:00,
2013-02-17 11:15:00,50.3,28.1,30.31,South,179,0.0,5.0,42,0.00,,,0.00,682,Wunderground v.1.15,2013-02-17 17:15:00,
2013-02-17 11:21:00,50.4,27.0,30.31,South,175,1.0,7.0,40,0.00,,,0.00,689,Wunderground v.1.15,2013-02-17 17:21:00,
2013-02-17 11:26:00,50.2,27.4,30.31,South,179,3.0,7.0,41,0.00,,,0.00,696,Wunderground v.1.15,2013-02-17 17:26:00,
2013-02-17 11:31:00,50.4,27.0,30.30,SSW,209,2.0,5.0,40,0.00,,,0.00,701,Wunderground v.1.15,2013-02-17 17:31:00,
2013-02-17 11:36:00,50.7,28.4,30.31,SSW,206,2.0,9.0,42,0.00,,,0.00,705,Wunderground v.1.15,2013-02-17 17:36:00,
2013-02-17 11:41:00,51.2,27.7,30.30,East,92,2.0,2.0,40,0.00,,,0.00,708,Wunderground v.1.15,2013-02-17 17:41:00,
2013-02-17 11:46:00,51.5,27.9,30.30,SW,233,1.0,7.0,40,0.00,,,0.00,714,Wunderground v.1.15,2013-02-17 17:46:00,
2013-02-17 11:52:00,51.8,29.4,30.30,WSW,238,1.0,1.0,42,0.00,,,0.00,719,Wunderground v.1.15,2013-02-17 17:52:00,
2013-02-17 11:57:00,52.5,29.5,30.29,SW,226,0.0,1.0,41,0.00,,,0.00,722,Wunderground v.1.15,2013-02-17 17:57:00,
2013-02-17 12:02:00,52.7,29.0,30.28,WSW,242,1.0,2.0,40,0.00,,,0.00,726,Wunderground v.1.15,2013-02-17 18:02:00,
2013-02-17 12:07:00,52.8,29.1,30.28,South,172,1.0,3.0,40,0.00,,,0.00,724,Wunderground v.1.15,2013-02-17 18:07:00,
2013-02-17 12:13:00,52.8,29.7,30.28,South,175,1.0,1.0,41,0.00,,,0.00,728,Wunderground v.1.15,2013-02-17 18:13:00,
2013-02-17 12:18:00,53.1,29.4,30.27,WSW,246,0.0,2.0,40,0.00,,,0.00,729,Wunderground v.1.15,2013-02-17 18:18:00,
2013-02-17 12:23:00,53.3,29.6,30.27,South,178,1.0,5.0,40,0.00,,,0.00,731,Wunderground v.1.15,2013-02-17 18:23:00,
2013-02-17 12:29:00,53.6,29.8,30.27,SSW,194,2.0,7.0,40,0.00,,,0.00,729,Wunderground v.1.15,2013-02-17 18:29:00,
2013-02-17 12:34:00,54.0,29.6,30.27,WSW,241,2.0,2.0,39,0.00,,,0.00,731,Wunderground v.1.15,2013-02-17 18:34:00,
2013-02-17 12:39:00,54.2,30.4,30.26,SW,225,2.0,7.0,40,0.00,,,0.00,729,Wunderground v.1.15,2013-02-17 18:39:00,
2013-02-17 12:44:00,54.7,31.4,30.26,SSW,208,1.0,2.0,41,0.00,,,0.00,728,Wunderground v.1.15,2013-02-17 18:44:00,
2013-02-17 12:49:00,55.3,32.0,30.26,WSW,249,1.0,4.0,41,0.00,,,0.00,728,Wunderground v.1.15,2013-02-17 18:49:00,
2013-02-17 12:55:00,55.5,31.5,30.26,SSW,205,1.0,10.0,40,0.00,,,0.00,726,Wunderground v.1.15,2013-02-17 18:55:00,
2013-02-17 13:00:00,55.9,32.5,30.25,South,184,1.0,1.0,41,0.00,,,0.00,724,Wunderground v.1.15,2013-02-17 19:00:00,
2013-02-17 13:05:00,56.2,31.5,30.25,WSW,237,1.0,4.0,39,0.00,,,0.00,721,Wunderground v.1.15,2013-02-17 19:05:00,
2013-02-17 13:10:00,56.1,31.5,30.25,SSW,192,1.0,7.0,39,0.00,,,0.00,717,Wunderground v.1.15,2013-02-17 19:10:00,
2013-02-17 13:15:00,56.1,32.1,30.24,SE,134,1.0,7.0,40,0.00,,,0.00,714,Wunderground v.1.15,2013-02-17 19:15:00,
2013-02-17 13:21:00,56.2,32.2,30.24,SW,235,2.0,2.0,40,0.00,,,0.00,710,Wunderground v.1.15,2013-02-17 19:21:00,
2013-02-17 13:26:00,56.4,33.0,30.24,WSW,248,2.0,12.0,41,0.00,,,0.00,705,Wunderground v.1.15,2013-02-17 19:26:00,
2013-02-17 13:31:00,56.9,32.2,30.23,SSW,193,1.0,3.0,39,0.00,,,0.00,700,Wunderground v.1.15,2013-02-17 19:31:00,
2013-02-17 13:37:00,57.1,33.0,30.23,South,174,1.0,3.0,40,0.00,,,0.00,691,Wunderground v.1.15,2013-02-17 19:37:00,
2013-02-17 13:42:00,57.4,33.3,30.23,South,173,1.0,3.0,40,0.00,,,0.00,684,Wunderground v.1.15,2013-02-17 19:42:00,
2013-02-17 13:47:00,57.3,33.2,30.23,SSW,207,2.0,3.0,40,0.00,,,0.00,677,Wunderground v.1.15,2013-02-17 19:47:00,
2013-02-17 13:52:00,57.7,34.1,30.22,WSW,241,1.0,7.0,41,0.00,,,0.00,670,Wunderground v.1.15,2013-02-17 19:52:00,
2013-02-17 13:57:00,57.6,33.4,30.22,SSW,193,2.0,7.0,40,0.00,,,0.00,661,Wunderground v.1.15,2013-02-17 19:57:00,
2013-02-17 14:03:00,57.4,33.9,30.22,SW,229,3.0,7.0,41,0.00,,,0.00,650,Wunderground v.1.15,2013-02-17 20:03:00,
2013-02-17 14:08:00,57.7,34.1,30.22,SSW,204,3.0,7.0,41,0.00,,,0.00,642,Wunderground v.1.15,2013-02-17 20:08:00,
2013-02-17 14:13:00,58.0,33.8,30.22,South,171,2.0,3.0,40,0.00,,,0.00,629,Wunderground v.1.15,2013-02-17 20:13:00,
2013-02-17 14:19:00,58.2,35.2,30.22,South,181,1.0,4.0,42,0.00,,,0.00,617,Wunderground v.1.15,2013-02-17 20:19:00,
2013-02-17 14:24:00,58.1,35.1,30.21,South,190,2.0,8.0,42,0.00,,,0.00,603,Wunderground v.1.15,2013-02-17 20:24:00,
2013-02-17 14:29:00,58.3,34.7,30.21,SSW,194,4.0,14.0,41,0.00,,,0.00,592,Wunderground v.1.15,2013-02-17 20:29:00,
2013-02-17 14:34:00,58.4,35.4,30.21,WSW,239,4.0,8.0,42,0.00,,,0.00,582,Wunderground v.1.15,2013-02-17 20:34:00,
2013-02-17 14:40:00,58.4,36.0,30.20,SW,232,3.0,6.0,43,0.00,,,0.00,566,Wunderground v.1.15,2013-02-17 20:40:00,
2013-02-17 14:45:00,58.6,36.2,30.21,SSW,200,2.0,6.0,43,0.00,,,0.00,552,Wunderground v.1.15,2013-02-17 20:45:00,
2013-02-17 14:50:00,58.8,36.3,30.20,South,175,2.0,2.0,43,0.00,,,0.00,540,Wunderground v.1.15,2013-02-17 20:50:00,
2013-02-17 14:55:00,59.0,36.5,30.20,SW,224,2.0,3.0,43,0.00,,,0.00,529,Wunderground v.1.15,2013-02-17 20:55:00,
2013-02-17 15:01:00,59.0,35.9,30.20,SW,229,2.0,2.0,42,0.00,,,0.00,508,Wunderground v.1.15,2013-02-17 21:01:00,
2013-02-17 15:06:00,59.0,35.9,30.20,South,186,3.0,6.0,42,0.00,,,0.00,497,Wunderground v.1.15,2013-02-17 21:06:00,
2013-02-17 15:11:00,59.0,35.9,30.20,SW,225,2.0,2.0,42,0.00,,,0.00,482,Wunderground v.1.15,2013-02-17 21:11:00,
2013-02-17 15:16:00,59.0,36.5,30.20,SW,214,2.0,7.0,43,0.00,,,0.00,466,Wunderground v.1.15,2013-02-17 21:16:00,
2013-02-17 15:21:00,59.0,35.9,30.19,South,171,2.0,5.0,42,0.00,,,0.00,454,Wunderground v.1.15,2013-02-17 21:21:00,
2013-02-17 15:27:00,59.0,35.9,30.19,South,189,2.0,5.0,42,0.00,,,0.00,434,Wunderground v.1.15,2013-02-17 21:27:00,
2013-02-17 15:32:00,59.0,36.5,30.19,SSW,211,1.0,7.0,43,0.00,,,0.00,417,Wunderground v.1.15,2013-02-17 21:32:00,
2013-02-17 15:37:00,59.0,36.5,30.19,South,174,2.0,7.0,43,0.00,,,0.00,399,Wunderground v.1.15,2013-02-17 21:37:00,
2013-02-17 15:42:00,59.0,35.9,30.19,SE,133,2.0,3.0,42,0.00,,,0.00,387,Wunderground v.1.15,2013-02-17 21:42:00,
2013-02-17 15:47:00,58.7,35.7,30.19,SSE,167,1.0,8.0,42,0.00,,,0.00,367,Wunderground v.1.15,2013-02-17 21:47:00,
2013-02-17 15:52:00,58.6,35.0,30.19,SSE,167,2.0,7.0,41,0.00,,,0.00,350,Wunderground v.1.15,2013-02-17 21:52:00,
2013-02-17 15:58:00,58.9,35.2,30.19,South,184,2.0,7.0,41,0.00,,,0.00,330,Wunderground v.1.15,2013-02-17 21:58:00,
2013-02-17 16:03:00,58.6,34.3,30.19,South,172,2.0,5.0,40,0.00,,,0.00,313,Wunderground v.1.15,2013-02-17 22:03:00,
2013-02-17 16:08:00,58.7,34.4,30.19,SSE,152,2.0,5.0,40,0.00,,,0.00,297,Wunderground v.1.15,2013-02-17 22:08:00,
2013-02-17 16:14:00,58.7,35.0,30.19,South,190,3.0,7.0,41,0.00,,,0.00,272,Wunderground v.1.15,2013-02-17 22:14:00,
2013-02-17 16:20:00,58.7,35.0,30.19,SSE,165,2.0,2.0,41,0.00,,,0.00,255,Wunderground v.1.15,2013-02-17 22:20:00,
2013-02-17 16:25:00,58.8,35.1,30.19,SSE,163,0.0,2.0,41,0.00,,,0.00,236,Wunderground v.1.15,2013-02-17 22:25:00,
2013-02-17 16:30:00,58.7,35.0,30.19,SE,142,1.0,5.0,41,0.00,,,0.00,213,Wunderground v.1.15,2013-02-17 22:30:00,
2013-02-17 16:36:00,58.4,34.8,30.19,SE,146,2.0,5.0,41,0.00,,,0.00,192,Wunderground v.1.15,2013-02-17 22:36:00,
2013-02-17 16:41:00,58.3,35.3,30.18,South,179,1.0,1.0,42,0.00,,,0.00,172,Wunderground v.1.15,2013-02-17 22:41:00,
2013-02-17 16:46:00,58.2,35.2,30.18,SSE,167,1.0,1.0,42,0.00,,,0.00,149,Wunderground v.1.15,2013-02-17 22:46:00,
2013-02-17 16:51:00,58.0,35.0,30.18,SE,135,1.0,6.0,42,0.00,,,0.00,130,Wunderground v.1.15,2013-02-17 22:51:00,
2013-02-17 16:57:00,57.9,35.5,30.18,SE,142,1.0,6.0,43,0.00,,,0.00,104,Wunderground v.1.15,2013-02-17 22:57:00,
2013-02-17 17:02:00,57.8,35.4,30.18,SSW,192,0.0,1.0,43,0.00,,,0.00,83,Wunderground v.1.15,2013-02-17 23:02:00,
2013-02-17 17:07:00,57.7,35.3,30.18,South,171,0.0,1.0,43,0.00,,,0.00,39,Wunderground v.1.15,2013-02-17 23:07:00,
2013-02-17 17:13:00,57.3,35.6,30.18,South,190,0.0,1.0,44,0.00,,,0.00,28,Wunderground v.1.15,2013-02-17 23:13:00,
2013-02-17 17:18:00,57.0,35.3,30.18,South,190,0.0,1.0,44,0.00,,,0.00,26,Wunderground v.1.15,2013-02-17 23:18:00,
2013-02-17 17:23:00,56.7,35.6,30.18,South,173,0.0,2.0,45,0.00,,,0.00,21,Wunderground v.1.15,2013-02-17 23:23:00,
2013-02-17 17:28:00,56.4,35.3,30.18,South,180,0.0,2.0,45,0.00,,,0.00,19,Wunderground v.1.15,2013-02-17 23:28:00,
2013-02-17 17:33:00,56.1,35.6,30.18,South,183,0.0,1.0,46,0.00,,,0.00,16,Wunderground v.1.15,2013-02-17 23:33:00,
2013-02-17 17:38:00,55.7,35.2,30.18,South,181,0.0,1.0,46,0.00,,,0.00,12,Wunderground v.1.15,2013-02-17 23:38:00,
2013-02-17 17:44:00,55.4,35.5,30.18,SSW,194,0.0,1.0,47,0.00,,,0.00,9,Wunderground v.1.15,2013-02-17 23:44:00,
2013-02-17 17:49:00,55.1,35.2,30.18,SSE,152,0.0,1.0,47,0.00,,,0.00,5,Wunderground v.1.15,2013-02-17 23:49:00,
2013-02-17 17:54:00,54.8,35.5,30.18,SE,146,0.0,1.0,48,0.00,,,0.00,0,Wunderground v.1.15,2013-02-17 23:54:00,
2013-02-17 17:59:00,54.5,35.2,30.18,SE,145,0.0,1.0,48,0.00,,,0.00,0,Wunderground v.1.15,2013-02-17 23:59:00,
2013-02-17 18:04:00,54.2,35.4,30.18,SE,145,0.0,1.0,49,0.00,,,0.00,0,Wunderground v.1.15,2013-02-18 00:04:00,
2013-02-17 18:10:00,53.8,35.6,30.18,SE,146,0.0,1.0,50,0.00,,,0.00,0,Wunderground v.1.15,2013-02-18 00:10:00,
2013-02-17 18:15:00,53.5,35.3,30.18,SE,146,0.0,1.0,50,0.00,,,0.00,0,Wunderground v.1.15,2013-02-18 00:15:00,
2013-02-17 18:21:00,53.2,35.5,30.18,SE,146,0.0,1.0,51,0.00,,,0.00,0,Wunderground v.1.15,2013-02-18 00:21:00,
2013-02-17 18:27:00,52.9,35.7,30.19,SE,146,0.0,1.0,52,0.00,,,0.00,0,Wunderground v.1.15,2013-02-18 00:27:00,
2013-02-17 18:32:00,52.6,35.9,30.19,SE,146,0.0,1.0,53,0.00,,,0.00,0,Wunderground v.1.15,2013-02-18 00:32:00,
2013-02-17 18:38:00,52.3,36.1,30.19,SSE,149,0.0,1.0,54,0.00,,,0.00,0,Wunderground v.1.15,2013-02-18 00:38:00,
2013-02-17 18:43:00,52.1,35.9,30.19,SSE,149,0.0,1.0,54,0.00,,,0.00,0,Wunderground v.1.15,2013-02-18 00:43:00,
2013-02-17 18:48:00,51.9,35.8,30.19,SSE,149,0.0,1.0,54,0.00,,,0.00,0,Wunderground v.1.15,2013-02-18 00:48:00,
2013-02-17 18:53:00,51.7,36.0,30.19,SSE,149,0.0,1.0,55,0.00,,,0.00,0,Wunderground v.1.15,2013-02-18 00:53:00,
2013-02-17 18:58:00,51.4,36.2,30.19,SSE,154,0.0,1.0,56,0.00,,,0.00,0,Wunderground v.1.15,2013-02-18 00:58:00,
2013-02-17 19:03:00,51.2,35.6,30.19,SSE,151,0.0,1.0,55,0.00,,,0.00,0,Wunderground v.1.15,2013-02-18 01:03:00,
2013-02-17 19:08:00,51.0,35.8,30.19,SSE,164,0.0,1.0,56,0.00,,,0.00,0,Wunderground v.1.15,2013-02-18 01:08:00,
2013-02-17 19:14:00,50.9,35.7,30.20,South,183,0.0,1.0,56,0.00,,,0.00,0,Wunderground v.1.15,2013-02-18 01:14:00,
2013-02-17 19:19:00,50.8,35.7,30.20,SE,141,0.0,1.0,56,0.00,,,0.00,0,Wunderground v.1.15,2013-02-18 01:19:00,
2013-02-17 19:24:00,50.7,36.0,30.20,SE,141,0.0,1.0,57,0.00,,,0.00,0,Wunderground v.1.15,2013-02-18 01:24:00,
2013-02-17 19:30:00,50.5,36.3,30.20,SSE,149,0.0,1.0,58,0.00,,,0.00,0,Wunderground v.1.15,2013-02-18 01:30:00,
2013-02-17 19:35:00,50.3,36.1,30.20,South,170,1.0,2.0,58,0.00,,,0.00,0,Wunderground v.1.15,2013-02-18 01:35:00,
2013-02-17 19:40:00,50.1,35.9,30.20,South,169,0.0,1.0,58,0.00,,,0.00,0,Wunderground v.1.15,2013-02-18 01:40:00,
2013-02-17 19:46:00,50.0,35.8,30.20,SE,146,0.0,1.0,58,0.00,,,0.00,0,Wunderground v.1.15,2013-02-18 01:46:00,
2013-02-17 19:51:00,49.9,36.1,30.20,SE,144,1.0,1.0,59,0.00,,,0.00,0,Wunderground v.1.15,2013-02-18 01:51:00,
2013-02-17 19:56:00,49.8,36.0,30.20,South,176,1.0,4.0,59,0.00,,,0.00,0,Wunderground v.1.15,2013-02-18 01:56:00,
2013-02-17 20:01:00,49.7,35.9,30.20,ESE,123,1.0,3.0,59,0.00,,,0.00,0,Wunderground v.1.15,2013-02-18 02:01:00,
2013-02-17 20:06:00,49.6,36.3,30.20,SSE,160,1.0,3.0,60,0.00,,,0.00,0,Wunderground v.1.15,2013-02-18 02:06:00,
2013-02-17 20:12:00,49.6,36.7,30.20,SSE,165,1.0,1.0,61,0.00,,,0.00,0,Wunderground v.1.15,2013-02-18 02:12:00,
2013-02-17 20:17:00,49.5,37.0,30.20,SSE,152,1.0,2.0,62,0.00,,,0.00,0,Wunderground v.1.15,2013-02-18 02:17:00,
2013-02-17 20:23:00,49.4,37.3,30.21,South,186,1.0,2.0,63,0.00,,,0.00,0,Wunderground v.1.15,2013-02-18 02:23:00,
2013-02-17 20:28:00,49.4,37.3,30.21,SSE,158,1.0,5.0,63,0.00,,,0.00,0,Wunderground v.1.15,2013-02-18 02:28:00,
2013-02-17 20:33:00,49.2,37.5,30.21,SSE,158,0.0,6.0,64,0.00,,,0.00,0,Wunderground v.1.15,2013-02-18 02:33:00,
2013-02-17 20:38:00,49.1,37.8,30.21,SSE,156,0.0,6.0,65,0.00,,,0.00,0,Wunderground v.1.15,2013-02-18 02:38:00,
2013-02-17 20:44:00,49.0,37.7,30.22,SSE,149,0.0,3.0,65,0.00,,,0.00,0,Wunderground v.1.15,2013-02-18 02:44:00,
2013-02-17 20:49:00,48.9,38.0,30.21,SE,138,0.0,4.0,66,0.00,,,0.00,0,Wunderground v.1.15,2013-02-18 02:49:00,
2013-02-17 20:54:00,48.8,37.9,30.21,SE,144,1.0,1.0,66,0.00,,,0.00,0,Wunderground v.1.15,2013-02-18 02:54:00,
2013-02-17 20:59:00,48.7,37.8,30.22,South,190,1.0,5.0,66,0.00,,,0.00,0,Wunderground v.1.15,2013-02-18 02:59:00,
2013-02-17 21:04:00,48.7,38.2,30.22,SSE,160,1.0,1.0,67,0.00,,,0.00,0,Wunderground v.1.15,2013-02-18 03:04:00,
2013-02-17 21:10:00,48.5,38.0,30.22,SSE,149,1.0,1.0,67,0.00,,,0.00,0,Wunderground v.1.15,2013-02-18 03:10:00,
2013-02-17 21:15:00,48.4,38.3,30.22,SSE,148,0.0,7.0,68,0.00,,,0.00,0,Wunderground v.1.15,2013-02-18 03:15:00,
2013-02-17 21:20:00,48.2,38.5,30.22,SE,146,0.0,1.0,69,0.00,,,0.00,0,Wunderground v.1.15,2013-02-18 03:20:00,
2013-02-17 21:25:00,48.1,38.4,30.22,SE,140,1.0,7.0,69,0.00,,,0.00,0,Wunderground v.1.15,2013-02-18 03:25:00,
2013-02-17 21:30:00,47.9,38.2,30.22,SE,142,1.0,1.0,69,0.00,,,0.00,0,Wunderground v.1.15,2013-02-18 03:30:00,
2013-02-17 21:36:00,47.8,38.5,30.22,SE,146,0.0,2.0,70,0.00,,,0.00,0,Wunderground v.1.15,2013-02-18 03:36:00,
2013-02-17 21:41:00,47.6,38.3,30.22,SE,138,0.0,1.0,70,0.00,,,0.00,0,Wunderground v.1.15,2013-02-18 03:41:00,
2013-02-17 21:46:00,47.4,38.5,30.22,SSE,148,0.0,1.0,71,0.00,,,0.00,0,Wunderground v.1.15,2013-02-18 03:46:00,
2013-02-17 21:51:00,47.2,38.3,30.22,SSE,156,0.0,1.0,71,0.00,,,0.00,0,Wunderground v.1.15,2013-02-18 03:51:00,
2013-02-17 21:56:00,47.0,38.4,30.22,SSE,150,0.0,1.0,72,0.00,,,0.00,0,Wunderground v.1.15,2013-02-18 03:56:00,
2013-02-17 22:01:00,46.8,38.2,30.22,SE,142,0.0,1.0,72,0.00,,,0.00,0,Wunderground v.1.15,2013-02-18 04:01:00,
2013-02-17 22:07:00,46.6,38.4,30.22,SSE,165,0.0,1.0,73,0.00,,,0.00,0,Wunderground v.1.15,2013-02-18 04:07:00,
2013-02-17 22:12:00,46.4,38.2,30.22,SE,136,0.0,1.0,73,0.00,,,0.00,0,Wunderground v.1.15,2013-02-18 04:12:00,
2013-02-17 22:17:00,46.3,38.5,30.22,South,171,0.0,1.0,74,0.00,,,0.00,0,Wunderground v.1.15,2013-02-18 04:17:00,
2013-02-17 22:22:00,46.1,38.3,30.22,SSE,158,0.0,2.0,74,0.00,,,0.00,0,Wunderground v.1.15,2013-02-18 04:22:00,
2013-02-17 22:27:00,46.0,38.2,30.22,SSE,167,0.0,2.0,74,0.00,,,0.00,0,Wunderground v.1.15,2013-02-18 04:27:00,
2013-02-17 22:33:00,45.8,38.3,30.22,SSE,151,0.0,1.0,75,0.00,,,0.00,0,Wunderground v.1.15,2013-02-18 04:33:00,
2013-02-17 22:38:00,45.6,38.5,30.21,SSW,197,0.0,1.0,76,0.00,,,0.00,0,Wunderground v.1.15,2013-02-18 04:38:00,
2013-02-17 22:44:00,45.4,38.3,30.22,SSE,154,0.0,1.0,76,0.00,,,0.00,0,Wunderground v.1.15,2013-02-18 04:44:00,
2013-02-17 22:49:00,45.2,38.4,30.21,SSE,149,0.0,1.0,77,0.00,,,0.00,0,Wunderground v.1.15,2013-02-18 04:49:00,
2013-02-17 22:54:00,45.0,38.2,30.21,SSE,149,0.0,1.0,77,0.00,,,0.00,0,Wunderground v.1.15,2013-02-18 04:54:00,
2013-02-17 22:59:00,45.0,38.6,30.21,SSE,149,0.0,1.0,78,0.00,,,0.00,0,Wunderground v.1.15,2013-02-18 04:59:00,
2013-02-17 23:00:00,44.9,38.5,30.21,SSE,149,0.0,1.0,78,0.00,,,0.00,0,Wunderground v.1.15,2013-02-18 05:00:00,
2013-02-17 23:01:00,44.9,38.5,30.21,SSE,156,0.0,1.0,78,0.00,,,0.00,0,Wunderground v.1.15,2013-02-18 05:01:00,
2013-02-17 23:02:00,44.9,38.5,30.21,SSE,156,0.0,1.0,78,0.00,,,0.00,0,Wunderground v.1.15,2013-02-18 05:02:00,
2013-02-17 23:04:00,44.8,38.7,30.21,South,176,0.0,5.0,79,0.00,,,0.00,0,Wunderground v.1.15,2013-02-18 05:04:00,
2013-02-17 23:09:00,44.7,38.3,30.21,SSE,148,0.0,5.0,78,0.00,,,0.00,0,Wunderground v.1.15,2013-02-18 05:09:00,
2013-02-17 23:14:00,44.7,38.6,30.21,SSE,155,1.0,4.0,79,0.00,,,0.00,0,Wunderground v.1.15,2013-02-18 05:14:00,
2013-02-17 23:19:00,44.6,38.5,30.21,SSE,156,0.0,4.0,79,0.00,,,0.00,0,Wunderground v.1.15,2013-02-18 05:19:00,
2013-02-17 23:24:00,44.5,38.7,30.21,SE,141,0.0,1.0,80,0.00,,,0.00,0,Wunderground v.1.15,2013-02-18 05:24:00,
2013-02-17 23:30:00,44.5,38.7,30.21,SSE,167,0.0,1.0,80,0.00,,,0.00,0,Wunderground v.1.15,2013-02-18 05:30:00,
2013-02-17 23:35:00,44.4,38.6,30.20,SSE,148,0.0,1.0,80,0.00,,,0.00,0,Wunderground v.1.15,2013-02-18 05:35:00,
2013-02-17 23:40:00,44.3,38.8,30.20,SE,138,0.0,1.0,81,0.00,,,0.00,0,Wunderground v.1.15,2013-02-18 05:40:00,
2013-02-17 23:46:00,44.1,38.6,30.20,SE,137,0.0,1.0,81,0.00,,,0.00,0,Wunderground v.1.15,2013-02-18 05:46:00,
2013-02-17 23:51:00,44.1,39.0,30.20,SE,142,0.0,1.0,82,0.00,,,0.00,0,Wunderground v.1.15,2013-02-18 05:51:00,
2013-02-17 23:56:00,44.0,38.9,30.20,SSE,160,0.0,1.0,82,0.00,,,0.00,0,Wunderground v.1.15,2013-02-18 05:56:00,